createdAt,value
2023-03-03T00:03:11.144Z,100931.53
2023-03-03T00:08:11.911Z,100931.69
2023-03-03T00:13:20.133Z,100936.44
2023-03-03T00:18:29.923Z,100935.50
2023-03-03T00:23:36.264Z,100941.44
2023-03-03T00:28:46.381Z,100939.50
2023-03-03T00:33:50.583Z,100943.59
2023-03-03T00:38:51.720Z,100953.19
2023-03-03T00:43:55.009Z,100947.44
2023-03-03T00:48:55.648Z,100943.41
2023-03-03T00:53:57.400Z,100947.72
2023-03-03T00:58:59.549Z,100950.78
2023-03-03T01:04:02.681Z,100952.63
2023-03-03T01:09:03.430Z,100954.31
2023-03-03T01:14:05.516Z,100956.28
2023-03-03T01:19:06.183Z,100959.44
2023-03-03T01:24:07.080Z,100961.91
2023-03-03T01:29:09.108Z,100959.53
2023-03-03T01:34:09.790Z,100953.13
2023-03-03T01:39:12.275Z,100961.97
2023-03-03T01:44:16.157Z,100959.63
2023-03-03T01:49:21.613Z,100955.09
2023-03-03T01:54:29.221Z,100948.44
2023-03-03T01:59:35.352Z,100945.97
2023-03-03T02:04:36.599Z,100946.84
2023-03-03T02:09:45.995Z,100935.84
2023-03-03T02:14:47.997Z,100940.97
2023-03-03T02:19:55.675Z,100945.25
2023-03-03T02:25:00.961Z,100948.09
2023-03-03T02:30:20.810Z,100948.59
2023-03-03T02:35:31.211Z,100946.09
2023-03-03T02:40:37.267Z,100951.50
2023-03-03T02:45:45.452Z,100941.22
2023-03-03T02:50:46.126Z,100950.56
2023-03-03T02:55:47.158Z,100941.97
2023-03-03T03:00:50.421Z,100944.19
2023-03-03T03:05:55.442Z,100955.56
2023-03-03T03:10:59.173Z,100955.78
2023-03-03T03:16:03.091Z,100965.50
2023-03-03T03:21:07.919Z,100971.72
2023-03-03T03:26:09.827Z,100974.50
2023-03-03T03:31:12.022Z,100971.09
2023-03-03T03:36:12.919Z,100963.31
2023-03-03T03:41:15.018Z,100963.28
2023-03-03T03:46:17.911Z,100953.25
2023-03-03T03:51:18.784Z,100955.09
2023-03-03T03:56:19.593Z,100970.47
2023-03-03T04:01:26.522Z,100983.88
2023-03-03T04:06:28.430Z,100981.44
2023-03-03T04:11:30.081Z,100979.38
2023-03-03T04:16:32.633Z,100994.97
2023-03-03T04:21:33.751Z,100996.16
2023-03-03T04:26:36.197Z,100988.22
2023-03-03T04:31:41.601Z,101015.03
2023-03-03T04:36:43.847Z,101002.16
2023-03-03T04:41:44.582Z,100995.03
2023-03-03T04:46:46.680Z,101014.47
2023-03-03T04:51:47.523Z,101016.47
2023-03-03T04:56:48.174Z,101012.47
2023-03-03T05:01:51.159Z,101012.03
2023-03-03T05:06:51.992Z,101003.88
2023-03-03T05:11:52.744Z,101014.84
2023-03-03T05:16:54.836Z,101018.28
2023-03-03T05:21:55.528Z,101008.84
2023-03-03T05:26:56.339Z,100993.38
2023-03-03T05:31:58.431Z,101010.88
2023-03-03T05:36:59.134Z,101004.31
2023-03-03T05:42:00.243Z,101006.09
2023-03-03T05:47:02.266Z,101019.50
2023-03-03T05:52:03.429Z,101015.16
2023-03-03T05:57:04.144Z,101016.81
2023-03-03T06:02:06.259Z,101010.06
2023-03-03T06:07:07.441Z,101019.66
2023-03-03T06:12:08.552Z,101001.94
2023-03-03T06:17:10.822Z,101006.09
2023-03-03T06:22:11.509Z,101011.31
2023-03-03T06:27:12.195Z,101015.72
2023-03-03T06:32:14.382Z,101012.75
2023-03-03T06:37:15.178Z,101034.19
2023-03-03T06:42:15.890Z,101046.91
2023-03-03T06:47:17.901Z,101042.16
2023-03-03T06:52:23.798Z,101049.66
2023-03-03T06:57:27.798Z,101040.66
2023-03-03T07:02:29.866Z,101048.56
2023-03-03T07:07:30.622Z,101062.22
2023-03-03T07:12:31.960Z,101064.03
2023-03-03T07:17:35.415Z,101049.84
2023-03-03T07:22:36.105Z,101056.25
2023-03-03T07:27:38.403Z,101060.00
2023-03-03T07:32:43.154Z,101077.94
2023-03-03T07:37:43.976Z,101082.69
2023-03-03T07:42:44.909Z,101095.75
2023-03-03T07:48:12.370Z,101100.22
2023-03-03T07:53:22.833Z,101090.28
2023-03-03T07:58:26.052Z,101090.19
2023-03-03T08:03:28.271Z,101087.47
2023-03-03T08:08:31.497Z,101096.34
2023-03-03T08:13:38.910Z,101083.16
2023-03-03T08:18:43.598Z,101093.41
2023-03-03T08:23:44.820Z,101086.19
2023-03-03T08:28:45.724Z,101080.16
2023-03-03T08:33:48.196Z,101101.84
2023-03-03T08:38:48.956Z,101089.03
2023-03-03T08:43:49.736Z,101090.53
2023-03-03T08:48:52.716Z,101109.38
2023-03-03T08:53:53.475Z,101115.22
2023-03-03T08:59:02.096Z,101099.28
2023-03-03T09:04:05.135Z,101088.75
2023-03-03T09:09:05.942Z,101102.56
2023-03-03T09:14:11.948Z,101114.34
2023-03-03T09:19:25.550Z,101109.91
2023-03-03T09:24:28.610Z,101122.13
2023-03-03T09:29:30.683Z,101118.19
2023-03-03T09:34:40.754Z,101124.63
2023-03-03T09:39:41.485Z,101128.25
2023-03-03T09:44:58.792Z,101141.59
2023-03-03T09:50:12.911Z,101140.00
2023-03-03T09:55:27.437Z,101142.28
2023-03-03T10:00:39.729Z,101150.88
2023-03-03T10:05:50.114Z,101134.06
2023-03-03T10:11:00.397Z,101135.75
2023-03-03T10:16:22.157Z,101143.63
2023-03-03T10:21:30.688Z,101162.44
2023-03-03T10:27:12.347Z,101162.03
2023-03-03T10:32:34.801Z,101146.38
2023-03-03T10:37:52.906Z,101147.41
2023-03-03T10:43:29.678Z,101147.28
2023-03-03T10:48:51.410Z,101149.84
2023-03-03T10:54:04.425Z,101151.63
2023-03-03T10:59:23.778Z,101148.75
2023-03-03T11:05:07.258Z,101145.00
2023-03-03T11:10:31.502Z,101147.78
2023-03-03T11:15:42.474Z,101147.72
2023-03-03T11:20:52.657Z,101143.13
2023-03-03T11:26:07.501Z,101141.78
2023-03-03T11:31:20.522Z,101139.97
2023-03-03T11:36:28.542Z,101130.69
2023-03-03T11:41:37.628Z,101134.59
2023-03-03T11:46:43.739Z,101136.66
2023-03-03T11:51:52.779Z,101126.00
2023-03-03T11:57:02.108Z,101126.38
2023-03-03T12:02:15.499Z,101123.00
2023-03-03T12:07:27.842Z,101114.44
2023-03-03T12:12:34.652Z,101118.44
2023-03-03T12:17:57.782Z,101121.88
2023-03-03T12:23:13.154Z,101111.53
2023-03-03T12:28:20.692Z,101108.97
2023-03-03T12:33:30.097Z,101101.28
2023-03-03T12:38:43.245Z,101103.69
2023-03-03T12:43:58.081Z,101083.66
2023-03-03T12:49:19.554Z,101084.59
2023-03-03T12:54:40.130Z,101074.66
2023-03-03T12:59:52.857Z,101080.50
2023-03-03T13:05:00.290Z,101075.28
2023-03-03T13:10:09.948Z,101069.03
2023-03-03T13:15:18.357Z,101072.94
2023-03-03T13:20:31.469Z,101085.59
2023-03-03T13:25:44.379Z,101068.84
2023-03-03T13:30:50.351Z,101064.56
2023-03-03T13:35:55.945Z,101065.31
2023-03-03T13:41:05.430Z,101049.97
2023-03-03T13:46:16.288Z,101060.00
2023-03-03T13:51:28.116Z,101059.00
2023-03-03T13:56:48.892Z,101045.84
2023-03-03T14:01:59.048Z,101050.22
2023-03-03T14:07:08.083Z,101041.88
2023-03-03T14:12:15.700Z,101037.50
2023-03-03T14:17:30.018Z,101035.13
2023-03-03T14:22:41.769Z,101031.84
2023-03-03T14:28:05.516Z,101020.78
2023-03-03T14:33:21.737Z,101018.06
2023-03-03T14:38:25.472Z,101035.69
2023-03-03T14:43:33.989Z,101020.91
2023-03-03T14:48:52.144Z,101012.50
2023-03-03T14:53:53.890Z,101014.13
2023-03-03T14:58:56.424Z,101003.00
2023-03-03T15:04:03.506Z,101010.44
2023-03-03T15:09:35.661Z,101004.69
2023-03-03T15:14:43.837Z,101009.41
2023-03-03T15:20:06.565Z,101001.66
2023-03-03T15:25:15.136Z,101005.13
2023-03-03T15:30:26.100Z,101003.16
2023-03-03T15:35:37.843Z,100988.03
2023-03-03T15:40:48.897Z,101005.69
2023-03-03T15:45:54.955Z,100996.91
2023-03-03T15:51:07.717Z,101007.53
2023-03-03T15:56:21.607Z,101002.66
2023-03-03T16:01:33.580Z,101016.38
2023-03-03T16:06:47.064Z,101010.31
2023-03-03T16:11:53.233Z,101002.66
2023-03-03T16:17:01.711Z,101005.19
2023-03-03T16:22:30.070Z,101003.59
2023-03-03T16:27:39.315Z,101010.47
2023-03-03T16:32:45.239Z,101006.25
2023-03-03T16:37:57.386Z,101013.31
2023-03-03T16:43:04.961Z,101009.59
2023-03-03T16:48:19.473Z,101015.47
2023-03-03T16:53:32.300Z,101013.59
2023-03-03T16:58:46.586Z,101013.75
2023-03-03T17:03:58.782Z,101004.13
2023-03-03T17:09:23.356Z,101006.03
2023-03-03T17:14:48.600Z,101013.03
2023-03-03T17:20:01.207Z,101018.19
2023-03-03T17:25:13.579Z,101013.47
2023-03-03T17:30:22.312Z,101013.91
2023-03-03T17:35:38.694Z,101018.69
2023-03-03T17:40:53.526Z,101026.75
2023-03-03T17:46:00.022Z,101027.84
2023-03-03T17:51:36.176Z,101023.53
2023-03-03T17:56:46.687Z,101019.50
2023-03-03T18:02:01.607Z,101024.44
2023-03-03T18:07:22.482Z,101023.56
2023-03-03T18:12:36.888Z,101033.09
2023-03-03T18:17:50.167Z,101011.78
2023-03-03T18:22:52.474Z,101020.31
2023-03-03T18:28:23.254Z,101028.25
2023-03-03T18:33:43.840Z,101022.19
2023-03-03T18:38:47.909Z,101024.50
2023-03-03T18:43:56.381Z,101035.00
2023-03-03T18:49:02.049Z,101038.13
2023-03-03T18:54:22.477Z,101041.16
2023-03-03T18:59:49.160Z,101025.78
2023-03-03T19:04:55.698Z,101022.25
2023-03-03T19:10:01.512Z,101028.09
2023-03-03T19:15:03.563Z,101035.41
2023-03-03T19:20:12.910Z,101030.91
2023-03-03T19:25:22.402Z,101029.22
2023-03-03T19:30:45.989Z,101034.09
2023-03-03T19:36:08.432Z,101031.59
2023-03-03T19:41:22.887Z,101027.09
2023-03-03T19:46:50.698Z,101022.84
2023-03-03T19:51:59.907Z,101020.31
2023-03-03T19:57:03.530Z,101028.06
2023-03-03T20:02:28.023Z,101027.97
2023-03-03T20:07:35.113Z,101035.75
2023-03-03T20:12:50.682Z,101026.50
2023-03-03T20:18:24.937Z,101021.75
2023-03-03T20:23:32.889Z,101017.53
2023-03-03T20:29:08.337Z,101010.09
2023-03-03T20:34:15.363Z,100997.19
2023-03-03T20:39:27.563Z,101000.03
2023-03-03T20:44:41.101Z,100992.00
2023-03-03T20:49:59.958Z,100997.88
2023-03-03T20:55:10.885Z,100988.47
2023-03-03T21:00:18.014Z,100991.03
2023-03-03T21:05:20.706Z,100985.84
2023-03-03T21:10:25.076Z,100979.78
2023-03-03T21:15:31.156Z,100984.19
2023-03-03T21:20:34.135Z,100972.47
2023-03-03T21:25:52.178Z,100971.44
2023-03-03T21:31:13.367Z,100969.03
2023-03-03T21:36:15.719Z,100969.63
2023-03-03T21:41:18.898Z,100960.63
2023-03-03T21:46:21.037Z,100963.06
2023-03-03T21:51:24.279Z,100951.13
2023-03-03T21:56:26.319Z,100955.75
2023-03-03T22:01:27.031Z,100952.13
2023-03-03T22:06:29.189Z,100954.66
2023-03-03T22:11:31.228Z,100952.00
2023-03-03T22:16:32.023Z,100950.13
2023-03-03T22:21:32.898Z,100952.97
2023-03-03T22:26:35.584Z,100943.72
2023-03-03T22:31:36.368Z,100940.19
2023-03-03T22:36:37.066Z,100935.19
2023-03-03T22:41:39.099Z,100935.19
2023-03-03T22:46:39.946Z,100933.25
2023-03-03T22:51:40.685Z,100930.69
2023-03-03T22:56:42.931Z,100923.16
2023-03-03T23:01:43.695Z,100929.06
2023-03-03T23:06:45.054Z,100919.59
2023-03-03T23:11:48.154Z,100912.75
2023-03-03T23:16:48.888Z,100914.50
2023-03-03T23:21:49.598Z,100903.63
2023-03-03T23:26:56.755Z,100886.41
2023-03-03T23:31:57.620Z,100885.63
2023-03-03T23:36:58.450Z,100878.50
2023-03-03T23:42:00.462Z,100890.75
2023-03-03T23:47:01.133Z,100875.13
2023-03-03T23:52:02.122Z,100883.78
2023-03-03T23:57:04.241Z,100876.19
